Airfield :
LOGIN :

Register | Disclaimer

   EN    FR    IT 

 










Legend :    VFR   Marginal VFR   IFR   Intensive IFR   Very Intensive IFR
Visi :
Ceiling :
>= 8 km
>= 3000ft
5 to 8 km
1000 to 3000 ft
1500m to 5 km
500 to 1000 ft
800 to 1500m
200 to 500 ft
< 800m
< 200 ft
Symbols :   Thunderstorms  Fog  Heavy snow  Heavy precipitations  Wind > 20 kt
SIGMETs :     Misc.  Thunderstorms  Icing  Turbulence  Mountain Waves  Volcanic Ashes







- Airport Elevation : 83 ft
- IATA code : VOL


LGBL - Aghialos Volos

CURRENT METAR :
  • 170320Z 26004KT 9999 FEW030 SCT080 20/16 Q1011

EXPIRED METARs :
  • 170250Z 26004KT 9999 FEW030 SCT080 20/16 Q1011
  • 170150Z 29006KT 9999 FEW030 20/16 Q1011

TAF TAF LGBL
Valid from the 17 at 03:00 until the 17 at 12:00 UTC


170200Z 1703/1712 28010KT 9999 FEW025 SCT080
BECMG 1707/1709 11014KT
TEMPO 1710/1712 SCT025 SCT080
PROB30
TEMPO 1710/1712 4000 TSRA FEW018CB SCT025 BKN080
No reported NOTAMs for that airfield.



MET'MAP, your aeronautical weather chart ! - Copyright ORBIFLY December 2007 - Disclaimer

ORBIFLY MET'MAP TEAM :

Programming & Development : Alexandra Zaïnal
Concept & Development : Baudouin d'Aumeries
Co-Development & Prog : Marc-Olivier Méhu
Technical & hardware support : Manuel Goepfert

Contact : metmap@orbifly.com




SOURCES & CREDITS :

   NOAA